createdAt,value
2022-12-03T00:02:19.131Z,78.09
2022-12-03T00:04:47.797Z,77.86
2022-12-03T00:07:14.743Z,78.05
2022-12-03T00:09:41.318Z,77.74
2022-12-03T00:12:08.422Z,78.30
2022-12-03T00:14:38.853Z,78.27
2022-12-03T00:17:10.105Z,78.66
2022-12-03T00:19:40.185Z,79.02
2022-12-03T00:22:11.700Z,79.46
2022-12-03T00:24:39.850Z,79.10
2022-12-03T00:27:06.597Z,79.87
2022-12-03T00:29:33.552Z,79.92
2022-12-03T00:32:03.209Z,80.52
2022-12-03T00:34:32.689Z,81.05
2022-12-03T00:37:02.105Z,81.37
2022-12-03T00:39:28.831Z,81.63
2022-12-03T00:41:55.630Z,81.59
2022-12-03T00:44:22.284Z,81.63
2022-12-03T00:46:49.123Z,81.96
2022-12-03T00:49:15.907Z,81.77
2022-12-03T00:51:44.773Z,81.90
2022-12-03T00:54:11.681Z,81.91
2022-12-03T00:56:41.093Z,82.34
2022-12-03T00:59:10.960Z,82.46
2022-12-03T01:01:41.499Z,82.46
2022-12-03T01:04:08.376Z,83.41
2022-12-03T01:06:38.559Z,83.57
2022-12-03T01:09:05.446Z,83.70
2022-12-03T01:11:37.985Z,83.05
2022-12-03T01:14:21.475Z,83.98
2022-12-03T01:16:48.408Z,83.57
2022-12-03T01:19:16.581Z,83.75
2022-12-03T01:21:45.138Z,83.86
2022-12-03T01:24:12.205Z,83.53
2022-12-03T01:26:39.101Z,83.74
2022-12-03T01:29:06.655Z,84.35
2022-12-03T01:31:56.029Z,83.97
2022-12-03T01:34:23.273Z,84.41
2022-12-03T01:36:54.722Z,84.56
2022-12-03T01:39:24.499Z,84.50
2022-12-03T01:41:58.803Z,85.22
2022-12-03T01:44:32.524Z,85.45
2022-12-03T01:47:05.252Z,85.08
2022-12-03T01:49:35.730Z,84.80
2022-12-03T01:52:02.568Z,84.66
2022-12-03T01:54:38.283Z,84.94
2022-12-03T01:57:07.894Z,84.94
2022-12-03T01:59:38.999Z,85.48
2022-12-03T02:02:13.257Z,85.81
2022-12-03T02:04:45.426Z,85.17
2022-12-03T02:07:17.685Z,84.98
2022-12-03T02:09:45.771Z,85.67
2022-12-03T02:12:18.038Z,85.82
2022-12-03T02:14:44.920Z,85.45
2022-12-03T02:17:15.203Z,85.86
2022-12-03T02:19:41.839Z,85.33
2022-12-03T02:22:19.475Z,84.74
2022-12-03T02:24:59.120Z,85.27
2022-12-03T02:27:28.332Z,85.21
2022-12-03T02:29:55.095Z,85.07
2022-12-03T02:32:23.605Z,84.49
2022-12-03T02:34:52.070Z,84.57
2022-12-03T02:37:27.831Z,84.72
2022-12-03T02:39:57.289Z,84.89
2022-12-03T02:42:36.647Z,84.77
2022-12-03T02:45:14.181Z,85.22
2022-12-03T02:47:45.399Z,85.29
2022-12-03T02:50:15.266Z,84.33
2022-12-03T02:52:46.950Z,83.73
2022-12-03T02:55:15.817Z,84.10
2022-12-03T02:57:45.970Z,84.45
2022-12-03T03:00:19.593Z,84.50
2022-12-03T03:02:50.995Z,84.89
2022-12-03T03:05:23.536Z,84.49
2022-12-03T03:07:51.581Z,84.56
2022-12-03T03:10:23.824Z,84.98
2022-12-03T03:12:52.765Z,84.64
2022-12-03T03:15:20.276Z,85.39
2022-12-03T03:17:50.182Z,85.25
2022-12-03T03:20:17.006Z,85.11
2022-12-03T03:22:46.771Z,85.14
2022-12-03T03:25:20.710Z,85.79
2022-12-03T03:27:48.450Z,86.26
2022-12-03T03:30:15.428Z,86.49
2022-12-03T03:32:46.006Z,86.79
2022-12-03T03:35:18.001Z,86.64
2022-12-03T03:37:44.794Z,86.04
2022-12-03T03:40:14.682Z,86.04
2022-12-03T03:42:41.765Z,85.83
2022-12-03T03:45:09.816Z,85.27
2022-12-03T03:47:37.272Z,85.93
2022-12-03T03:50:04.440Z,85.65
2022-12-03T03:52:31.391Z,86.33
2022-12-03T03:54:58.364Z,86.63
2022-12-03T03:57:25.081Z,86.31
2022-12-03T03:59:51.722Z,85.37
2022-12-03T04:02:24.763Z,85.94
2022-12-03T04:04:56.228Z,84.96
2022-12-03T04:07:25.066Z,85.19
2022-12-03T04:09:54.138Z,85.60
2022-12-03T04:12:40.830Z,86.07
2022-12-03T04:15:08.139Z,85.92
2022-12-03T04:17:34.770Z,86.61
2022-12-03T04:20:01.332Z,86.69
2022-12-03T04:22:40.305Z,86.81
2022-12-03T04:25:28.337Z,87.00
2022-12-03T04:28:13.597Z,87.35
2022-12-03T04:30:40.301Z,87.03
2022-12-03T04:33:28.841Z,87.18
2022-12-03T04:35:55.651Z,87.31
2022-12-03T04:38:25.707Z,86.83
2022-12-03T04:41:01.255Z,87.38
2022-12-03T04:43:28.747Z,87.32
2022-12-03T04:46:00.889Z,87.09
2022-12-03T04:48:30.019Z,87.30
2022-12-03T04:50:57.569Z,87.84
2022-12-03T04:53:24.386Z,87.45
2022-12-03T04:55:51.083Z,87.29
2022-12-03T04:58:19.833Z,87.50
2022-12-03T05:00:49.359Z,87.57
2022-12-03T05:03:17.959Z,88.07
2022-12-03T05:05:44.572Z,87.61
2022-12-03T05:08:11.304Z,87.61
2022-12-03T05:10:38.580Z,88.05
2022-12-03T05:13:05.286Z,87.73
2022-12-03T05:15:32.155Z,87.92
2022-12-03T05:17:58.846Z,87.13
2022-12-03T05:20:53.911Z,87.64
2022-12-03T05:23:27.182Z,87.70
2022-12-03T05:25:56.674Z,87.43
2022-12-03T05:28:26.628Z,86.72
2022-12-03T05:30:53.407Z,87.04
2022-12-03T05:33:20.648Z,86.88
2022-12-03T05:35:54.149Z,86.91
2022-12-03T05:38:20.807Z,87.64
2022-12-03T05:40:47.770Z,87.86
2022-12-03T05:43:17.649Z,88.06
2022-12-03T05:45:50.369Z,87.46
2022-12-03T05:48:20.364Z,87.43
2022-12-03T05:50:50.383Z,86.43
2022-12-03T05:53:18.604Z,87.38
2022-12-03T05:55:53.862Z,87.18
2022-12-03T05:58:21.752Z,87.03
2022-12-03T06:00:50.807Z,87.71
2022-12-03T06:03:17.576Z,87.46
2022-12-03T06:05:44.584Z,86.99
2022-12-03T06:08:11.285Z,86.54
2022-12-03T06:10:38.086Z,87.12
2022-12-03T06:13:04.665Z,87.05
2022-12-03T06:15:36.344Z,86.65
2022-12-03T06:18:12.827Z,86.88
2022-12-03T06:20:39.838Z,87.48
2022-12-03T06:23:06.481Z,87.43
2022-12-03T06:25:35.954Z,86.90
2022-12-03T06:28:02.635Z,87.38
2022-12-03T06:30:29.276Z,87.26
2022-12-03T06:32:58.246Z,87.80
2022-12-03T06:35:24.990Z,87.78
2022-12-03T06:37:55.764Z,88.61
2022-12-03T06:40:24.611Z,87.64
2022-12-03T06:42:53.941Z,87.81
2022-12-03T06:45:20.691Z,87.78
2022-12-03T06:47:47.369Z,87.81
2022-12-03T06:50:14.507Z,88.06
2022-12-03T06:52:41.200Z,87.84
2022-12-03T06:55:08.371Z,87.37
2022-12-03T06:57:36.143Z,87.35
2022-12-03T07:00:04.104Z,87.42
2022-12-03T07:02:30.867Z,87.94
2022-12-03T07:04:58.226Z,87.81
2022-12-03T07:07:26.701Z,87.81
2022-12-03T07:09:55.924Z,87.90
2022-12-03T07:12:22.580Z,87.80
2022-12-03T07:14:49.292Z,88.38
2022-12-03T07:17:17.165Z,88.78
2022-12-03T07:19:43.822Z,89.27
2022-12-03T07:22:10.589Z,89.22
2022-12-03T07:24:37.294Z,89.62
2022-12-03T07:27:04.070Z,89.74
2022-12-03T07:29:30.716Z,90.34
2022-12-03T07:31:57.355Z,90.13
2022-12-03T07:34:27.672Z,89.84
2022-12-03T07:36:54.511Z,89.48
2022-12-03T07:39:21.215Z,89.28
2022-12-03T07:41:47.867Z,89.50
2022-12-03T07:44:15.160Z,88.62
2022-12-03T07:46:42.571Z,89.38
2022-12-03T07:49:12.527Z,89.19
2022-12-03T07:51:39.482Z,89.08
2022-12-03T07:54:06.382Z,88.73
2022-12-03T07:56:33.030Z,88.55
2022-12-03T07:58:59.641Z,88.44
2022-12-03T08:01:26.419Z,88.83
2022-12-03T08:03:53.393Z,88.75
2022-12-03T08:06:29.038Z,88.63
2022-12-03T08:08:58.850Z,88.45
2022-12-03T08:11:29.048Z,88.47
2022-12-03T08:13:59.533Z,88.75
2022-12-03T08:16:27.237Z,88.84
2022-12-03T08:18:57.646Z,88.53
2022-12-03T08:21:24.361Z,88.92
2022-12-03T08:23:51.106Z,88.45
2022-12-03T08:26:24.032Z,88.55
2022-12-03T08:28:51.995Z,88.11
2022-12-03T08:31:33.755Z,87.90
2022-12-03T08:34:15.981Z,89.18
2022-12-03T08:36:42.839Z,89.11
2022-12-03T08:39:29.859Z,89.11
2022-12-03T08:42:21.193Z,88.42
2022-12-03T08:44:51.086Z,87.83
2022-12-03T08:47:27.487Z,87.30
2022-12-03T08:50:01.658Z,87.78
2022-12-03T08:52:32.541Z,87.58
2022-12-03T08:55:00.676Z,86.68
2022-12-03T08:57:34.693Z,86.36
2022-12-03T09:00:18.622Z,87.14
2022-12-03T09:02:51.713Z,86.57
2022-12-03T09:05:32.951Z,86.58
2022-12-03T09:08:00.355Z,86.68
2022-12-03T09:10:27.065Z,87.50
2022-12-03T09:12:53.837Z,87.60
2022-12-03T09:15:20.461Z,87.21
2022-12-03T09:17:47.253Z,86.48
2022-12-03T09:20:14.472Z,86.32
2022-12-03T09:22:41.337Z,86.12
2022-12-03T09:25:09.133Z,85.69
2022-12-03T09:27:35.895Z,85.93
2022-12-03T09:30:03.649Z,86.00
2022-12-03T09:32:30.570Z,85.69
2022-12-03T09:34:58.770Z,85.45
2022-12-03T09:37:25.666Z,86.08
2022-12-03T09:39:54.637Z,86.16
2022-12-03T09:42:21.837Z,86.39
2022-12-03T09:44:48.951Z,86.36
2022-12-03T09:47:15.629Z,86.24
2022-12-03T09:49:43.274Z,86.00
2022-12-03T09:52:16.916Z,86.45
2022-12-03T09:54:52.136Z,85.49
2022-12-03T09:57:19.826Z,86.53
2022-12-03T09:59:51.393Z,85.94
2022-12-03T10:02:29.298Z,86.01
2022-12-03T10:04:57.667Z,86.20
2022-12-03T10:07:25.595Z,85.97
2022-12-03T10:09:53.239Z,86.25
2022-12-03T10:12:24.776Z,86.22
2022-12-03T10:14:52.917Z,85.98
2022-12-03T10:17:22.151Z,85.98
2022-12-03T10:19:54.935Z,85.33
2022-12-03T10:22:24.836Z,85.43
2022-12-03T10:25:23.992Z,85.29
2022-12-03T10:28:00.976Z,85.65
2022-12-03T10:30:28.994Z,84.84
2022-12-03T10:33:02.864Z,84.42
2022-12-03T10:35:44.668Z,84.43
2022-12-03T10:38:17.920Z,84.98
2022-12-03T10:40:45.527Z,84.95
2022-12-03T10:43:22.068Z,84.63
2022-12-03T10:46:10.403Z,84.50
2022-12-03T10:48:40.431Z,84.21
2022-12-03T10:51:25.132Z,84.77
2022-12-03T10:53:54.974Z,86.15
2022-12-03T10:56:29.463Z,86.00
2022-12-03T10:58:56.669Z,85.45
2022-12-03T11:01:25.911Z,85.07
2022-12-03T11:04:00.764Z,84.45
2022-12-03T11:06:33.269Z,85.84
2022-12-03T11:09:08.313Z,85.19
2022-12-03T11:11:35.881Z,85.11
2022-12-03T11:14:06.777Z,85.77
2022-12-03T11:16:39.798Z,86.25
2022-12-03T11:19:12.592Z,86.38
2022-12-03T11:22:07.137Z,86.38
2022-12-03T11:24:37.020Z,86.21
2022-12-03T11:27:03.709Z,86.41
2022-12-03T11:29:50.542Z,86.81
2022-12-03T11:32:39.382Z,87.11
2022-12-03T11:35:24.676Z,87.37
2022-12-03T11:37:54.739Z,87.11
2022-12-03T11:40:21.649Z,87.16
2022-12-03T11:42:49.337Z,87.40
2022-12-03T11:45:22.755Z,87.59
2022-12-03T11:48:18.113Z,86.72
2022-12-03T11:50:51.260Z,87.05
2022-12-03T11:53:22.302Z,87.81
2022-12-03T11:56:09.415Z,87.41
2022-12-03T11:58:38.852Z,86.81
2022-12-03T12:01:08.959Z,87.33
2022-12-03T12:03:48.272Z,88.33
2022-12-03T12:06:22.202Z,88.18
2022-12-03T12:08:53.088Z,87.17
2022-12-03T12:11:27.957Z,87.97
2022-12-03T12:14:05.608Z,87.41
2022-12-03T12:16:53.520Z,86.81
2022-12-03T12:19:41.309Z,86.51
2022-12-03T12:22:25.343Z,86.92
2022-12-03T12:25:01.339Z,86.84
2022-12-03T12:27:34.446Z,86.47
2022-12-03T12:30:05.324Z,86.55
2022-12-03T12:32:42.060Z,86.98
2022-12-03T12:35:33.008Z,86.70
2022-12-03T12:38:11.473Z,86.37
2022-12-03T12:40:42.381Z,86.95
2022-12-03T12:43:37.347Z,87.06
2022-12-03T12:49:00.634Z,87.24
2022-12-03T12:51:27.393Z,87.39
2022-12-03T12:53:54.216Z,87.01
2022-12-03T12:56:31.377Z,87.13
2022-12-03T12:59:12.857Z,87.57
2022-12-03T13:01:40.688Z,87.21
2022-12-03T13:04:17.643Z,87.26
2022-12-03T13:06:50.169Z,87.71
2022-12-03T13:09:24.450Z,87.54
2022-12-03T13:11:54.456Z,88.06
2022-12-03T13:14:26.795Z,88.16
2022-12-03T13:16:57.340Z,88.13
2022-12-03T13:19:52.176Z,87.60
2022-12-03T13:22:28.214Z,87.86
2022-12-03T13:25:00.277Z,87.94
2022-12-03T13:27:30.426Z,88.16
2022-12-03T13:30:01.180Z,88.60
2022-12-03T13:32:37.599Z,88.25
2022-12-03T13:35:24.951Z,87.97
2022-12-03T13:37:51.820Z,87.93
2022-12-03T13:40:33.066Z,88.46
2022-12-03T13:43:00.138Z,88.49
2022-12-03T13:45:41.751Z,88.14
2022-12-03T13:48:27.995Z,88.70
2022-12-03T13:50:55.386Z,89.31
2022-12-03T13:53:26.149Z,89.91
2022-12-03T13:56:03.607Z,88.77
2022-12-03T13:58:36.259Z,88.75
2022-12-03T14:01:03.123Z,88.68
2022-12-03T14:03:29.907Z,88.92
2022-12-03T14:05:56.913Z,89.60
2022-12-03T14:08:23.791Z,89.04
2022-12-03T14:10:54.270Z,89.36
2022-12-03T14:13:27.448Z,89.86
2022-12-03T14:15:58.015Z,89.64
2022-12-03T14:18:25.026Z,89.61
2022-12-03T14:20:54.695Z,89.90
2022-12-03T14:23:27.567Z,89.96
2022-12-03T14:25:55.698Z,90.12
2022-12-03T14:28:26.589Z,89.78
2022-12-03T14:30:55.249Z,89.52
2022-12-03T14:33:22.980Z,89.61
2022-12-03T14:35:55.916Z,89.88
2022-12-03T14:38:22.718Z,89.64
2022-12-03T14:40:49.574Z,89.61
2022-12-03T14:43:22.433Z,89.87
2022-12-03T14:45:49.231Z,90.11
2022-12-03T14:48:16.017Z,89.39
2022-12-03T14:50:46.224Z,89.89
2022-12-03T14:53:27.437Z,89.83
2022-12-03T14:55:57.259Z,89.67
2022-12-03T14:58:26.151Z,89.88
2022-12-03T15:00:52.814Z,89.90
2022-12-03T15:03:20.055Z,90.02
2022-12-03T15:05:52.689Z,90.40
2022-12-03T15:08:19.629Z,90.13
2022-12-03T15:10:46.451Z,90.91
2022-12-03T15:13:13.376Z,90.43
2022-12-03T15:15:43.237Z,90.31
2022-12-03T15:18:10.070Z,89.94
2022-12-03T15:20:39.956Z,90.07
2022-12-03T15:23:15.867Z,90.08
2022-12-03T15:25:56.945Z,90.25
2022-12-03T15:28:24.750Z,90.38
2022-12-03T15:30:51.682Z,90.17
2022-12-03T15:33:24.227Z,90.21
2022-12-03T15:35:51.014Z,90.16
2022-12-03T15:38:19.512Z,90.75
2022-12-03T15:40:51.493Z,90.77
2022-12-03T15:43:18.431Z,90.78
2022-12-03T15:45:51.699Z,90.77
2022-12-03T15:48:18.776Z,91.00
2022-12-03T15:50:45.694Z,91.18
2022-12-03T15:53:17.138Z,90.98
2022-12-03T15:55:43.962Z,90.97
2022-12-03T15:58:10.708Z,90.78
2022-12-03T16:00:37.504Z,90.79
2022-12-03T16:03:04.494Z,91.22
2022-12-03T16:05:31.271Z,91.22
2022-12-03T16:07:58.069Z,90.99
2022-12-03T16:10:24.845Z,91.71
2022-12-03T16:12:51.595Z,91.17
2022-12-03T16:15:26.698Z,91.92
2022-12-03T16:17:54.095Z,91.87
2022-12-03T16:20:20.808Z,91.85
2022-12-03T16:22:48.143Z,91.77
2022-12-03T16:25:17.597Z,91.77
2022-12-03T16:27:44.645Z,91.51
2022-12-03T16:30:15.726Z,91.69
2022-12-03T16:32:42.728Z,91.58
2022-12-03T16:35:10.673Z,91.00
2022-12-03T16:37:37.584Z,91.66
2022-12-03T16:40:04.933Z,91.45
2022-12-03T16:42:39.160Z,91.07
2022-12-03T16:45:09.938Z,91.01
2022-12-03T16:47:37.300Z,91.40
2022-12-03T16:50:17.971Z,91.06
2022-12-03T16:52:48.223Z,91.23
2022-12-03T16:55:20.966Z,91.24
2022-12-03T16:57:49.213Z,91.44
2022-12-03T17:02:56.517Z,91.73
2022-12-03T17:05:23.444Z,91.84
2022-12-03T17:07:52.026Z,91.70
2022-12-03T17:10:24.877Z,91.94
2022-12-03T17:15:40.025Z,92.35
2022-12-03T17:18:12.816Z,92.11
2022-12-03T17:20:40.833Z,92.00
2022-12-03T17:23:08.144Z,91.71
2022-12-03T17:25:35.460Z,91.98
2022-12-03T17:28:02.839Z,91.54
2022-12-03T17:30:36.166Z,91.53
2022-12-03T17:33:03.792Z,92.03
2022-12-03T17:35:32.425Z,91.72
2022-12-03T17:38:03.707Z,91.91
2022-12-03T17:40:30.401Z,92.39
2022-12-03T17:42:57.140Z,92.05
2022-12-03T17:45:24.006Z,91.91
2022-12-03T17:47:50.762Z,92.08
2022-12-03T17:50:17.523Z,92.14
2022-12-03T17:52:44.436Z,91.44
2022-12-03T17:55:15.734Z,91.93
2022-12-03T17:57:50.098Z,91.89
2022-12-03T18:00:20.585Z,92.13
2022-12-03T18:02:47.360Z,92.61
2022-12-03T18:05:14.380Z,92.03
2022-12-03T18:07:42.097Z,91.74
2022-12-03T18:10:09.371Z,91.65
2022-12-03T18:12:37.820Z,92.01
2022-12-03T18:15:05.157Z,91.91
2022-12-03T18:17:33.467Z,91.95
2022-12-03T18:20:00.313Z,91.88
2022-12-03T18:22:28.460Z,91.82
2022-12-03T18:24:55.732Z,91.81
2022-12-03T18:27:23.726Z,91.82
2022-12-03T18:29:52.977Z,91.87
2022-12-03T18:32:28.972Z,91.98
2022-12-03T18:34:57.492Z,92.20
2022-12-03T18:37:29.986Z,92.07
2022-12-03T18:39:59.468Z,92.10
2022-12-03T18:42:31.858Z,91.98
2022-12-03T18:44:58.790Z,91.83
2022-12-03T18:47:32.050Z,90.94
2022-12-03T18:50:02.378Z,91.46
2022-12-03T18:52:32.715Z,91.41
2022-12-03T18:55:00.207Z,91.91
2022-12-03T18:57:27.190Z,92.08
2022-12-03T18:59:54.125Z,92.58
2022-12-03T19:05:08.737Z,92.04
2022-12-03T19:07:37.637Z,91.96
2022-12-03T19:10:05.280Z,92.19
2022-12-03T19:12:33.191Z,91.60
2022-12-03T19:14:59.805Z,91.88
2022-12-03T19:17:27.576Z,92.17
2022-12-03T19:19:55.239Z,91.59
2022-12-03T19:22:23.052Z,91.67
2022-12-03T19:24:52.314Z,91.77
2022-12-03T19:27:19.511Z,91.93
2022-12-03T19:29:52.311Z,91.72
2022-12-03T19:32:23.311Z,92.10
2022-12-03T19:34:50.324Z,92.44
2022-12-03T19:37:17.057Z,92.53
2022-12-03T19:39:43.920Z,92.18
2022-12-03T19:42:10.576Z,92.32
2022-12-03T19:44:37.301Z,91.50
2022-12-03T19:47:03.964Z,91.51
2022-12-03T19:49:31.694Z,91.70
2022-12-03T19:51:58.415Z,91.80
2022-12-03T19:54:29.158Z,91.38
2022-12-03T19:56:57.262Z,91.17
2022-12-03T19:59:24.058Z,91.07
2022-12-03T20:01:50.903Z,90.58
2022-12-03T20:04:17.891Z,90.77
2022-12-03T20:06:45.536Z,90.49
2022-12-03T20:09:17.344Z,90.44
2022-12-03T20:11:46.008Z,90.53
2022-12-03T20:14:17.082Z,90.84
2022-12-03T20:16:45.305Z,90.44
2022-12-03T20:19:14.965Z,92.18
2022-12-03T20:21:43.467Z,92.40
2022-12-03T20:24:16.354Z,91.53
2022-12-03T20:26:43.503Z,91.86
2022-12-03T20:29:13.192Z,91.83
2022-12-03T20:31:40.283Z,92.14
2022-12-03T20:34:09.873Z,92.30
2022-12-03T20:36:37.166Z,92.19
2022-12-03T20:39:09.675Z,91.77
2022-12-03T20:41:47.003Z,91.26
2022-12-03T20:44:14.900Z,91.22
2022-12-03T20:46:44.368Z,91.07
2022-12-03T20:49:11.962Z,91.12
2022-12-03T20:51:47.900Z,90.95
2022-12-03T20:54:15.776Z,91.25
2022-12-03T20:56:42.462Z,91.78
2022-12-03T20:59:13.272Z,91.93
2022-12-03T21:01:47.127Z,92.21
2022-12-03T21:04:14.939Z,91.61
2022-12-03T21:06:45.450Z,91.94
2022-12-03T21:09:13.335Z,91.98
2022-12-03T21:11:43.407Z,91.75
2022-12-03T21:14:11.618Z,91.94
2022-12-03T21:17:08.455Z,92.66
2022-12-03T21:19:32.260Z,92.32
2022-12-03T21:22:00.106Z,91.59
2022-12-03T21:24:36.170Z,91.75
2022-12-03T21:27:04.527Z,92.25
2022-12-03T21:29:34.366Z,92.16
2022-12-03T21:32:04.279Z,92.41
2022-12-03T21:34:36.453Z,93.04
2022-12-03T21:37:06.666Z,93.27
2022-12-03T21:39:37.696Z,92.96
2022-12-03T21:42:25.910Z,92.79
2022-12-03T21:44:58.632Z,92.92
2022-12-03T21:47:25.825Z,92.74
2022-12-03T21:49:56.032Z,92.78
2022-12-03T21:52:22.937Z,92.12
2022-12-03T21:54:52.523Z,92.67
2022-12-03T21:57:20.900Z,92.29
2022-12-03T21:59:47.772Z,92.61
2022-12-03T22:02:15.137Z,92.63
2022-12-03T22:04:43.246Z,92.24
2022-12-03T22:07:10.908Z,92.53
2022-12-03T22:09:37.890Z,92.33
2022-12-03T22:12:04.921Z,92.30
2022-12-03T22:14:31.913Z,91.80
2022-12-03T22:16:58.833Z,91.84
2022-12-03T22:19:27.628Z,92.34
2022-12-03T22:21:57.824Z,92.46
2022-12-03T22:24:24.875Z,92.71
2022-12-03T22:26:53.894Z,93.16
2022-12-03T22:29:20.828Z,92.43
2022-12-03T22:31:47.562Z,92.02
2022-12-03T22:34:17.034Z,92.73
2022-12-03T22:36:43.913Z,91.45
2022-12-03T22:39:10.716Z,92.07
2022-12-03T22:41:40.099Z,92.52
2022-12-03T22:44:06.911Z,92.68
2022-12-03T22:46:36.171Z,91.89
2022-12-03T22:49:07.097Z,91.76
2022-12-03T22:51:35.254Z,92.28
2022-12-03T22:54:03.077Z,91.97
2022-12-03T22:56:30.785Z,91.60
2022-12-03T22:58:58.243Z,92.21
2022-12-03T23:01:28.485Z,92.58
2022-12-03T23:04:10.893Z,91.86
2022-12-03T23:06:38.738Z,91.81
2022-12-03T23:09:11.005Z,91.42
2022-12-03T23:11:41.488Z,91.71
2022-12-03T23:14:08.273Z,92.16
2022-12-03T23:16:35.259Z,91.91
2022-12-03T23:19:04.160Z,92.22
2022-12-03T23:21:33.625Z,91.79
2022-12-03T23:24:03.114Z,92.20
2022-12-03T23:26:29.959Z,92.14
2022-12-03T23:28:56.958Z,92.90
2022-12-03T23:31:29.990Z,92.97
2022-12-03T23:33:57.899Z,92.98
2022-12-03T23:36:26.913Z,92.32
2022-12-03T23:38:54.592Z,92.64
2022-12-03T23:41:23.421Z,92.88
2022-12-03T23:43:50.758Z,92.93
2022-12-03T23:46:26.045Z,93.36
2022-12-03T23:48:52.967Z,92.80
2022-12-03T23:51:23.062Z,92.21
2022-12-03T23:53:54.043Z,92.21
2022-12-03T23:56:26.974Z,91.99
2022-12-03T23:58:59.639Z,91.84
